sensor_id;sensor_type;location;lat;lon;timestamp;temperature;humidity
6373;DHT22;3219;51.362;7.074;2022-09-09T14:44:39;19.80;99.90
6373;DHT22;3219;51.362;7.074;2022-09-09T14:47:06;19.90;99.90
6373;DHT22;3219;51.362;7.074;2022-09-09T14:49:35;19.80;99.90
6373;DHT22;3219;51.362;7.074;2022-09-09T14:52:02;19.80;99.90
6373;DHT22;3219;51.362;7.074;2022-09-09T14:54:29;19.80;99.90
6373;DHT22;3219;51.362;7.074;2022-09-09T14:56:56;19.80;99.90
6373;DHT22;3219;51.362;7.074;2022-09-09T14:59:23;19.80;99.90
6373;DHT22;3219;51.362;7.074;2022-09-09T15:01:50;19.70;99.90
6373;DHT22;3219;51.362;7.074;2022-09-09T15:04:17;19.70;99.90
6373;DHT22;3219;51.362;7.074;2022-09-09T15:06:45;19.60;99.90
6373;DHT22;3219;51.362;7.074;2022-09-09T15:09:13;19.30;99.90
6373;DHT22;3219;51.362;7.074;2022-09-09T15:11:40;19.10;99.90
6373;DHT22;3219;51.362;7.074;2022-09-09T15:14:08;18.90;99.90
6373;DHT22;3219;51.362;7.074;2022-09-09T15:16:38;18.60;99.90
6373;DHT22;3219;51.362;7.074;2022-09-09T15:19:05;18.40;99.90
6373;DHT22;3219;51.362;7.074;2022-09-09T15:21:34;18.30;99.90
6373;DHT22;3219;51.362;7.074;2022-09-09T15:24:03;18.10;99.90
6373;DHT22;3219;51.362;7.074;2022-09-09T15:26:31;17.80;99.90
6373;DHT22;3219;51.362;7.074;2022-09-09T15:28:57;17.60;99.90
6373;DHT22;3219;51.362;7.074;2022-09-09T15:31:27;17.40;99.90
6373;DHT22;3219;51.362;7.074;2022-09-09T15:33:57;17.30;99.90
6373;DHT22;3219;51.362;7.074;2022-09-09T15:36:27;17.20;99.90
6373;DHT22;3219;51.362;7.074;2022-09-09T15:38:55;17.10;99.90
6373;DHT22;3219;51.362;7.074;2022-09-09T15:41:23;17.00;99.90
6373;DHT22;3219;51.362;7.074;2022-09-09T15:43:51;17.00;99.90
6373;DHT22;3219;51.362;7.074;2022-09-09T15:46:26;16.90;99.90
6373;DHT22;3219;51.362;7.074;2022-09-09T15:48:54;16.80;99.90
6373;DHT22;3219;51.362;7.074;2022-09-09T15:51:22;16.90;99.90
6373;DHT22;3219;51.362;7.074;2022-09-09T15:53:54;16.90;99.90
6373;DHT22;3219;51.362;7.074;2022-09-09T15:56:23;16.90;99.90
6373;DHT22;3219;51.362;7.074;2022-09-09T15:58:50;16.90;99.90
6373;DHT22;3219;51.362;7.074;2022-09-09T16:01:17;16.90;99.90
6373;DHT22;3219;51.362;7.074;2022-09-09T16:03:45;16.90;99.90
6373;DHT22;3219;51.362;7.074;2022-09-09T16:06:13;17.00;99.90
6373;DHT22;3219;51.362;7.074;2022-09-09T16:08:41;17.00;99.90
6373;DHT22;3219;51.362;7.074;2022-09-09T16:11:10;17.00;99.90
6373;DHT22;3219;51.362;7.074;2022-09-09T16:13:39;17.00;99.90
6373;DHT22;3219;51.362;7.074;2022-09-09T16:16:07;17.00;99.90
6373;DHT22;3219;51.362;7.074;2022-09-09T16:18:35;17.10;99.90
6373;DHT22;3219;51.362;7.074;2022-09-09T16:21:02;17.00;99.90
6373;DHT22;3219;51.362;7.074;2022-09-09T16:23:30;17.00;99.90
6373;DHT22;3219;51.362;7.074;2022-09-09T16:25:57;17.00;99.90
6373;DHT22;3219;51.362;7.074;2022-09-09T16:28:24;17.00;99.90
6373;DHT22;3219;51.362;7.074;2022-09-09T16:30:52;17.00;99.90
6373;DHT22;3219;51.362;7.074;2022-09-09T16:33:19;17.00;99.90
6373;DHT22;3219;51.362;7.074;2022-09-09T16:35:46;16.80;99.90
6373;DHT22;3219;51.362;7.074;2022-09-09T16:38:14;16.80;99.90
6373;DHT22;3219;51.362;7.074;2022-09-09T16:40:42;16.80;99.90
6373;DHT22;3219;51.362;7.074;2022-09-09T16:43:08;16.80;99.90
6373;DHT22;3219;51.362;7.074;2022-09-09T16:45:41;16.90;99.90
6373;DHT22;3219;51.362;7.074;2022-09-09T16:48:09;16.90;99.90
6373;DHT22;3219;51.362;7.074;2022-09-09T16:50:36;16.90;99.90
6373;DHT22;3219;51.362;7.074;2022-09-09T16:53:03;17.10;99.90
6373;DHT22;3219;51.362;7.074;2022-09-09T16:55:31;17.10;99.90
6373;DHT22;3219;51.362;7.074;2022-09-09T16:57:59;17.20;99.90
6373;DHT22;3219;51.362;7.074;2022-09-09T17:00:26;17.10;99.90
6373;DHT22;3219;51.362;7.074;2022-09-09T17:02:53;17.20;99.90
6373;DHT22;3219;51.362;7.074;2022-09-09T17:05:21;17.10;99.90
6373;DHT22;3219;51.362;7.074;2022-09-09T17:07:48;17.00;99.90
6373;DHT22;3219;51.362;7.074;2022-09-09T17:10:15;17.00;99.90
6373;DHT22;3219;51.362;7.074;2022-09-09T17:12:42;17.00;99.90
6373;DHT22;3219;51.362;7.074;2022-09-09T17:15:09;16.90;99.90
6373;DHT22;3219;51.362;7.074;2022-09-09T17:17:36;16.90;99.90
6373;DHT22;3219;51.362;7.074;2022-09-09T17:20:03;16.90;99.90
6373;DHT22;3219;51.362;7.074;2022-09-09T17:22:33;16.80;99.90
6373;DHT22;3219;51.362;7.074;2022-09-09T17:25:00;16.80;99.90
6373;DHT22;3219;51.362;7.074;2022-09-09T17:27:27;16.80;99.90
6373;DHT22;3219;51.362;7.074;2022-09-09T17:29:56;16.90;99.90
6373;DHT22;3219;51.362;7.074;2022-09-09T17:32:23;16.80;99.90
6373;DHT22;3219;51.362;7.074;2022-09-09T17:34:50;16.80;99.90
6373;DHT22;3219;51.362;7.074;2022-09-09T17:37:18;16.80;99.90
6373;DHT22;3219;51.362;7.074;2022-09-09T17:39:46;16.90;99.90
6373;DHT22;3219;51.362;7.074;2022-09-09T17:42:13;16.90;99.90
6373;DHT22;3219;51.362;7.074;2022-09-09T17:44:41;16.80;99.90
6373;DHT22;3219;51.362;7.074;2022-09-09T17:47:08;16.90;99.90
6373;DHT22;3219;51.362;7.074;2022-09-09T17:49:35;16.80;99.90
6373;DHT22;3219;51.362;7.074;2022-09-09T17:52:02;16.80;99.90
6373;DHT22;3219;51.362;7.074;2022-09-09T17:54:30;16.70;99.90
6373;DHT22;3219;51.362;7.074;2022-09-09T17:56:59;16.70;99.90
6373;DHT22;3219;51.362;7.074;2022-09-09T17:59:26;16.80;99.90
6373;DHT22;3219;51.362;7.074;2022-09-09T18:01:53;16.80;99.90
6373;DHT22;3219;51.362;7.074;2022-09-09T18:04:20;16.80;99.90
6373;DHT22;3219;51.362;7.074;2022-09-09T18:06:48;16.80;99.90
6373;DHT22;3219;51.362;7.074;2022-09-09T18:09:17;16.70;99.90
6373;DHT22;3219;51.362;7.074;2022-09-09T18:11:47;16.70;99.90
6373;DHT22;3219;51.362;7.074;2022-09-09T18:14:17;16.70;99.90
6373;DHT22;3219;51.362;7.074;2022-09-09T18:16:45;16.70;99.90
6373;DHT22;3219;51.362;7.074;2022-09-09T18:19:15;16.70;99.90
6373;DHT22;3219;51.362;7.074;2022-09-09T18:21:43;16.60;99.90
6373;DHT22;3219;51.362;7.074;2022-09-09T18:24:10;16.70;99.90
6373;DHT22;3219;51.362;7.074;2022-09-09T18:26:39;16.80;99.90
6373;DHT22;3219;51.362;7.074;2022-09-09T18:29:08;16.50;99.90
6373;DHT22;3219;51.362;7.074;2022-09-09T18:31:37;16.90;99.90
6373;DHT22;3219;51.362;7.074;2022-09-09T18:34:05;16.60;99.90
6373;DHT22;3219;51.362;7.074;2022-09-09T18:36:34;16.70;99.90
6373;DHT22;3219;51.362;7.074;2022-09-09T18:39:02;16.80;99.90
6373;DHT22;3219;51.362;7.074;2022-09-09T18:41:31;16.60;99.90
6373;DHT22;3219;51.362;7.074;2022-09-09T18:44:00;16.50;99.90
6373;DHT22;3219;51.362;7.074;2022-09-09T18:46:29;16.60;99.90
6373;DHT22;3219;51.362;7.074;2022-09-09T18:48:57;16.50;99.90
6373;DHT22;3219;51.362;7.074;2022-09-09T18:51:27;16.50;99.90
6373;DHT22;3219;51.362;7.074;2022-09-09T18:53:55;16.50;99.90
6373;DHT22;3219;51.362;7.074;2022-09-09T18:56:23;16.50;99.90
6373;DHT22;3219;51.362;7.074;2022-09-09T18:58:51;16.60;99.90
6373;DHT22;3219;51.362;7.074;2022-09-09T19:01:18;16.60;99.90
6373;DHT22;3219;51.362;7.074;2022-09-09T19:03:45;16.50;99.90
6373;DHT22;3219;51.362;7.074;2022-09-09T19:06:15;16.50;99.90
6373;DHT22;3219;51.362;7.074;2022-09-09T19:08:44;16.50;99.90
6373;DHT22;3219;51.362;7.074;2022-09-09T19:11:12;16.50;99.90
6373;DHT22;3219;51.362;7.074;2022-09-09T19:13:41;16.50;99.90
6373;DHT22;3219;51.362;7.074;2022-09-09T19:16:10;16.50;99.90
6373;DHT22;3219;51.362;7.074;2022-09-09T19:18:37;16.60;99.90
6373;DHT22;3219;51.362;7.074;2022-09-09T19:21:11;16.50;99.90
6373;DHT22;3219;51.362;7.074;2022-09-09T19:23:40;16.50;99.90
6373;DHT22;3219;51.362;7.074;2022-09-09T19:26:07;16.50;99.90
6373;DHT22;3219;51.362;7.074;2022-09-09T19:28:36;16.40;99.90
6373;DHT22;3219;51.362;7.074;2022-09-09T19:31:05;16.40;99.90
6373;DHT22;3219;51.362;7.074;2022-09-09T19:33:33;16.40;99.90
6373;DHT22;3219;51.362;7.074;2022-09-09T19:36:02;16.30;99.90
6373;DHT22;3219;51.362;7.074;2022-09-09T19:38:30;16.30;99.90
6373;DHT22;3219;51.362;7.074;2022-09-09T19:41:03;16.30;99.90
6373;DHT22;3219;51.362;7.074;2022-09-09T19:43:30;16.30;99.90
6373;DHT22;3219;51.362;7.074;2022-09-09T19:45:58;16.40;99.90
6373;DHT22;3219;51.362;7.074;2022-09-09T19:48:27;16.30;99.90
6373;DHT22;3219;51.362;7.074;2022-09-09T19:50:59;16.30;99.90
6373;DHT22;3219;51.362;7.074;2022-09-09T19:53:26;16.30;99.90
6373;DHT22;3219;51.362;7.074;2022-09-09T19:55:53;16.20;99.90
6373;DHT22;3219;51.362;7.074;2022-09-09T19:58:21;16.30;99.90
6373;DHT22;3219;51.362;7.074;2022-09-09T20:00:48;16.40;99.90
6373;DHT22;3219;51.362;7.074;2022-09-09T20:03:14;16.20;99.90
6373;DHT22;3219;51.362;7.074;2022-09-09T20:05:41;16.30;99.90
6373;DHT22;3219;51.362;7.074;2022-09-09T20:08:08;16.30;99.90
6373;DHT22;3219;51.362;7.074;2022-09-09T20:10:35;16.40;99.90
6373;DHT22;3219;51.362;7.074;2022-09-09T20:13:01;16.40;99.90
6373;DHT22;3219;51.362;7.074;2022-09-09T20:15:29;16.40;99.90
6373;DHT22;3219;51.362;7.074;2022-09-09T20:17:56;16.40;99.90
6373;DHT22;3219;51.362;7.074;2022-09-09T20:20:23;16.50;99.90
6373;DHT22;3219;51.362;7.074;2022-09-09T20:22:50;16.50;99.90
6373;DHT22;3219;51.362;7.074;2022-09-09T20:25:17;16.60;99.90
6373;DHT22;3219;51.362;7.074;2022-09-09T20:27:47;16.50;99.90
6373;DHT22;3219;51.362;7.074;2022-09-09T20:30:14;16.60;99.90
6373;DHT22;3219;51.362;7.074;2022-09-09T20:32:42;16.50;99.90
6373;DHT22;3219;51.362;7.074;2022-09-09T20:35:09;16.60;99.90
6373;DHT22;3219;51.362;7.074;2022-09-09T20:37:38;16.60;99.90
6373;DHT22;3219;51.362;7.074;2022-09-09T20:40:06;16.50;99.90
6373;DHT22;3219;51.362;7.074;2022-09-09T20:42:33;16.40;99.90
6373;DHT22;3219;51.362;7.074;2022-09-09T20:44:59;16.50;99.90
6373;DHT22;3219;51.362;7.074;2022-09-09T20:47:26;16.60;99.90
6373;DHT22;3219;51.362;7.074;2022-09-09T20:49:54;16.50;99.90
6373;DHT22;3219;51.362;7.074;2022-09-09T20:52:21;16.60;99.90
6373;DHT22;3219;51.362;7.074;2022-09-09T20:54:48;16.60;99.90
6373;DHT22;3219;51.362;7.074;2022-09-09T20:57:15;16.50;99.90
6373;DHT22;3219;51.362;7.074;2022-09-09T20:59:46;16.60;99.90
6373;DHT22;3219;51.362;7.074;2022-09-09T21:02:15;16.30;99.90
6373;DHT22;3219;51.362;7.074;2022-09-09T21:04:42;16.40;99.90
6373;DHT22;3219;51.362;7.074;2022-09-09T21:07:12;16.40;99.90
6373;DHT22;3219;51.362;7.074;2022-09-09T21:09:39;16.40;99.90
6373;DHT22;3219;51.362;7.074;2022-09-09T21:12:06;16.50;99.90
6373;DHT22;3219;51.362;7.074;2022-09-09T21:14:33;16.50;99.90
6373;DHT22;3219;51.362;7.074;2022-09-09T21:17:00;16.40;99.90
6373;DHT22;3219;51.362;7.074;2022-09-09T21:19:27;16.40;99.90
6373;DHT22;3219;51.362;7.074;2022-09-09T21:21:55;16.40;99.90
6373;DHT22;3219;51.362;7.074;2022-09-09T21:24:23;16.50;99.90
6373;DHT22;3219;51.362;7.074;2022-09-09T21:26:50;16.40;99.90
6373;DHT22;3219;51.362;7.074;2022-09-09T21:29:19;16.40;99.90
6373;DHT22;3219;51.362;7.074;2022-09-09T21:31:45;16.40;99.90
6373;DHT22;3219;51.362;7.074;2022-09-09T21:34:12;16.40;99.90
6373;DHT22;3219;51.362;7.074;2022-09-09T21:36:39;16.50;99.90
6373;DHT22;3219;51.362;7.074;2022-09-09T21:39:06;16.40;99.90
6373;DHT22;3219;51.362;7.074;2022-09-09T21:41:34;16.40;99.90
6373;DHT22;3219;51.362;7.074;2022-09-09T21:44:02;16.40;99.90
6373;DHT22;3219;51.362;7.074;2022-09-09T21:46:28;16.50;99.90
6373;DHT22;3219;51.362;7.074;2022-09-09T21:48:56;16.40;99.90
6373;DHT22;3219;51.362;7.074;2022-09-09T21:51:24;16.40;99.90
6373;DHT22;3219;51.362;7.074;2022-09-09T21:53:53;16.30;99.90
6373;DHT22;3219;51.362;7.074;2022-09-09T21:56:20;16.40;99.90
6373;DHT22;3219;51.362;7.074;2022-09-09T21:58:53;16.50;99.90
6373;DHT22;3219;51.362;7.074;2022-09-09T22:01:20;16.50;99.90
6373;DHT22;3219;51.362;7.074;2022-09-09T22:03:49;16.50;99.90
6373;DHT22;3219;51.362;7.074;2022-09-09T22:06:17;16.20;99.90
6373;DHT22;3219;51.362;7.074;2022-09-09T22:08:44;16.00;99.90
6373;DHT22;3219;51.362;7.074;2022-09-09T22:11:13;16.30;99.90
6373;DHT22;3219;51.362;7.074;2022-09-09T22:13:41;16.30;99.90
6373;DHT22;3219;51.362;7.074;2022-09-09T22:16:12;16.00;99.90
6373;DHT22;3219;51.362;7.074;2022-09-09T22:18:39;16.30;99.90
6373;DHT22;3219;51.362;7.074;2022-09-09T22:21:06;16.20;99.90
6373;DHT22;3219;51.362;7.074;2022-09-09T22:23:33;16.30;99.90
6373;DHT22;3219;51.362;7.074;2022-09-09T22:26:01;16.20;99.90
6373;DHT22;3219;51.362;7.074;2022-09-09T22:28:27;16.10;99.90
6373;DHT22;3219;51.362;7.074;2022-09-09T22:30:55;16.10;99.90
6373;DHT22;3219;51.362;7.074;2022-09-09T22:33:23;16.10;99.90
6373;DHT22;3219;51.362;7.074;2022-09-09T22:35:51;16.20;99.90
6373;DHT22;3219;51.362;7.074;2022-09-09T22:38:19;16.20;99.90
6373;DHT22;3219;51.362;7.074;2022-09-09T22:40:46;16.10;99.90
6373;DHT22;3219;51.362;7.074;2022-09-09T22:43:15;16.10;99.90
6373;DHT22;3219;51.362;7.074;2022-09-09T22:45:43;16.10;99.90
6373;DHT22;3219;51.362;7.074;2022-09-09T22:48:10;16.20;99.90
6373;DHT22;3219;51.362;7.074;2022-09-09T22:50:38;16.00;99.90
6373;DHT22;3219;51.362;7.074;2022-09-09T22:53:06;16.00;99.90
6373;DHT22;3219;51.362;7.074;2022-09-09T22:55:34;16.00;99.90
6373;DHT22;3219;51.362;7.074;2022-09-09T22:58:01;16.00;99.90
6373;DHT22;3219;51.362;7.074;2022-09-09T23:00:29;16.00;99.90
6373;DHT22;3219;51.362;7.074;2022-09-09T23:02:55;15.90;99.90
6373;DHT22;3219;51.362;7.074;2022-09-09T23:05:22;15.90;99.90
6373;DHT22;3219;51.362;7.074;2022-09-09T23:07:52;15.90;99.90
6373;DHT22;3219;51.362;7.074;2022-09-09T23:10:23;15.90;99.90
6373;DHT22;3219;51.362;7.074;2022-09-09T23:12:51;15.90;99.90
6373;DHT22;3219;51.362;7.074;2022-09-09T23:15:18;15.90;99.90
6373;DHT22;3219;51.362;7.074;2022-09-09T23:17:45;16.00;99.90
6373;DHT22;3219;51.362;7.074;2022-09-09T23:20:11;16.00;99.90
6373;DHT22;3219;51.362;7.074;2022-09-09T23:22:38;16.00;99.90
6373;DHT22;3219;51.362;7.074;2022-09-09T23:25:07;16.00;99.90
6373;DHT22;3219;51.362;7.074;2022-09-09T23:27:34;16.10;99.90
6373;DHT22;3219;51.362;7.074;2022-09-09T23:30:03;16.10;99.90
6373;DHT22;3219;51.362;7.074;2022-09-09T23:32:30;16.20;99.90
6373;DHT22;3219;51.362;7.074;2022-09-09T23:34:57;16.20;99.90
6373;DHT22;3219;51.362;7.074;2022-09-09T23:37:24;16.10;99.90
6373;DHT22;3219;51.362;7.074;2022-09-09T23:39:51;16.10;99.90
6373;DHT22;3219;51.362;7.074;2022-09-09T23:42:19;16.20;99.90
6373;DHT22;3219;51.362;7.074;2022-09-09T23:44:45;16.20;99.90
6373;DHT22;3219;51.362;7.074;2022-09-09T23:47:12;16.20;99.90
6373;DHT22;3219;51.362;7.074;2022-09-09T23:49:39;16.20;99.90
6373;DHT22;3219;51.362;7.074;2022-09-09T23:52:06;16.20;99.90
6373;DHT22;3219;51.362;7.074;2022-09-09T23:54:34;16.20;99.90
6373;DHT22;3219;51.362;7.074;2022-09-09T23:57:02;16.20;99.90
6373;DHT22;3219;51.362;7.074;2022-09-09T23:59:30;16.10;99.90
